Time;durP1;ratioP1;P1;durP2;ratioP2;P2;SDS_P1;SDS_P2;PMS_P1;PMS_P2;Temp;Humidity;BMP_temperature;BMP_pressure;BME280_temperature;BME280_humidity;BME280_pressure;Samples;Min_cycle;Max_cycle;Signal;HPM_P1;HPM_P2
2021/04/20 00:01:11;;;;;;;35.05;28.45;;;7.60;99.90;;;;;;5009819;28;20030;-75
2021/04/20 00:03:37;;;;;;;33.58;27.15;;;7.70;99.90;;;;;;5009749;28;20014;-74
2021/04/20 00:06:05;;;;;;;34.97;28.45;;;7.50;99.90;;;;;;5009448;28;20113;-72
2021/04/20 00:08:30;;;;;;;36.13;27.83;;;7.50;99.90;;;;;;5010556;28;20025;-72
2021/04/20 00:10:56;;;;;;;32.20;25.70;;;7.60;99.90;;;;;;5009084;28;20064;-73
2021/04/20 00:13:21;;;;;;;36.60;27.88;;;7.50;99.90;;;;;;5009583;28;20018;-73
2021/04/20 00:15:47;;;;;;;34.45;26.83;;;7.60;99.90;;;;;;5010571;28;20014;-72
2021/04/20 00:18:13;;;;;;;34.03;27.27;;;7.60;99.90;;;;;;5011925;28;20049;-73
2021/04/20 00:20:38;;;;;;;34.72;27.17;;;7.50;99.90;;;;;;5012022;28;20034;-72
2021/04/20 00:23:06;;;;;;;32.10;27.13;;;7.40;99.90;;;;;;5012226;28;20092;-73
2021/04/20 00:25:32;;;;;;;32.92;26.40;;;7.40;99.90;;;;;;5003701;28;20034;-72
2021/04/20 00:27:58;;;;;;;34.85;28.50;;;7.30;99.90;;;;;;5010255;28;20383;-72
2021/04/20 00:30:23;;;;;;;34.47;27.58;;;7.40;99.90;;;;;;5010421;28;20479;-72
2021/04/20 00:32:49;;;;;;;33.20;26.85;;;7.30;99.90;;;;;;5011745;28;20077;-72
2021/04/20 00:35:14;;;;;;;34.92;27.27;;;7.30;99.90;;;;;;5010357;28;20112;-71
2021/04/20 00:37:40;;;;;;;30.98;25.48;;;7.30;99.90;;;;;;5010317;28;20498;-73
2021/04/20 00:40:09;;;;;;;32.53;25.42;;;7.30;99.90;;;;;;5010248;28;20022;-72
2021/04/20 00:42:48;;;;;;;35.05;26.52;;;7.20;99.90;;;;;;5011040;28;20066;-73
2021/04/20 00:45:16;;;;;;;33.22;26.77;;;7.10;99.90;;;;;;5011468;28;20118;-74
2021/04/20 00:47:42;;;;;;;34.75;27.17;;;7.10;99.90;;;;;;5010096;28;20022;-75
2021/04/20 00:50:10;;;;;;;36.45;28.02;;;7.10;99.90;;;;;;5011860;28;20480;-71
2021/04/20 00:52:35;;;;;;;36.75;29.00;;;7.00;99.90;;;;;;5011633;28;20025;-71
2021/04/20 00:55:01;;;;;;;37.45;27.95;;;7.00;99.90;;;;;;5011664;28;20395;-71
2021/04/20 00:57:26;;;;;;;33.45;26.73;;;7.30;99.90;;;;;;5011291;28;20103;-74
2021/04/20 00:59:52;;;;;;;33.55;26.85;;;7.00;99.90;;;;;;5010173;28;20026;-74
2021/04/20 01:02:17;;;;;;;33.20;27.10;;;6.70;99.90;;;;;;5011296;28;20037;-74
2021/04/20 01:04:43;;;;;;;36.20;28.52;;;6.70;99.90;;;;;;5011146;28;20014;-74
2021/04/20 01:07:09;;;;;;;34.72;27.00;;;6.70;99.90;;;;;;5011276;28;20022;-74
2021/04/20 01:09:36;;;;;;;34.17;27.65;;;6.70;99.90;;;;;;5011338;28;20053;-73
2021/04/20 01:12:01;;;;;;;36.83;29.50;;;6.70;99.90;;;;;;5009819;28;20077;-73
2021/04/20 01:14:27;;;;;;;35.25;28.35;;;6.90;99.90;;;;;;5014814;28;20038;-74
2021/04/20 01:16:52;;;;;;;35.90;29.02;;;6.90;99.90;;;;;;5014877;28;20087;-73
2021/04/20 01:19:21;;;;;;;40.03;30.58;;;6.90;99.90;;;;;;5014898;28;20549;-73
2021/04/20 01:21:48;;;;;;;32.95;26.00;;;6.80;99.90;;;;;;5013862;28;20049;-73
2021/04/20 01:24:25;;;;;;;36.10;28.45;;;6.80;99.90;;;;;;5013366;28;20029;-73
2021/04/20 01:26:51;;;;;;;33.95;26.98;;;6.60;99.90;;;;;;5014837;28;20029;-73
2021/04/20 01:29:16;;;;;;;33.33;26.27;;;6.30;99.90;;;;;;5014830;28;20426;-73
2021/04/20 01:31:44;;;;;;;33.13;26.25;;;6.40;99.90;;;;;;5014506;28;20030;-73
2021/04/20 01:34:11;;;;;;;35.95;27.23;;;6.40;99.90;;;;;;5014464;28;20095;-73
2021/04/20 01:36:36;;;;;;;33.42;26.55;;;6.40;99.90;;;;;;5013266;28;20029;-72
2021/04/20 01:39:05;;;;;;;37.50;28.52;;;6.40;99.90;;;;;;5014610;28;20038;-73
2021/04/20 01:41:32;;;;;;;35.13;27.38;;;6.40;99.90;;;;;;5012615;28;20025;-73
2021/04/20 01:43:58;;;;;;;33.65;26.58;;;6.40;99.90;;;;;;5014375;28;20097;-73
2021/04/20 01:46:24;;;;;;;34.60;26.73;;;6.50;99.90;;;;;;5014614;28;20097;-74
2021/04/20 01:48:50;;;;;;;32.38;26.75;;;6.40;99.90;;;;;;5013371;28;20076;-73
2021/04/20 01:51:17;;;;;;;37.00;27.50;;;6.40;99.90;;;;;;5014277;28;20380;-73
2021/04/20 01:53:43;;;;;;;33.35;26.58;;;6.30;99.90;;;;;;5014016;28;20029;-73
2021/04/20 01:56:10;;;;;;;35.25;28.20;;;6.20;99.90;;;;;;5014276;28;20022;-73
2021/04/20 01:58:38;;;;;;;35.60;27.67;;;6.10;99.90;;;;;;5012733;28;20014;-73
2021/04/20 02:01:25;;;;;;;37.58;27.73;;;6.10;99.90;;;;;;5013984;28;20018;-73
2021/04/20 02:03:51;;;;;;;40.08;29.08;;;6.20;99.90;;;;;;5013767;28;20361;-73
2021/04/20 02:06:19;;;;;;;38.58;29.50;;;6.30;99.90;;;;;;5014007;28;20057;-73
2021/04/20 02:08:47;;;;;;;40.22;31.40;;;6.30;99.90;;;;;;5013960;28;20022;-73
2021/04/20 02:11:16;;;;;;;40.78;31.70;;;6.40;99.90;;;;;;5013800;28;20009;-73
2021/04/20 02:13:43;;;;;;;42.90;32.08;;;6.40;99.90;;;;;;5013733;28;20034;-72
2021/04/20 02:16:09;;;;;;;38.35;30.25;;;6.40;99.90;;;;;;5012590;28;20428;-74
2021/04/20 02:18:39;;;;;;;39.15;30.17;;;6.30;99.90;;;;;;5013756;28;20018;-73
2021/04/20 02:21:05;;;;;;;39.25;30.02;;;6.20;99.90;;;;;;5013815;28;20564;-72
2021/04/20 02:23:31;;;;;;;36.50;29.38;;;6.20;99.90;;;;;;5013514;28;20057;-74
2021/04/20 02:26:07;;;;;;;41.88;31.13;;;6.20;99.90;;;;;;5012470;28;20022;-74
2021/04/20 02:28:33;;;;;;;36.80;28.90;;;6.20;99.90;;;;;;5005595;28;20018;-74
2021/04/20 02:31:04;;;;;;;42.45;31.40;;;6.10;99.90;;;;;;5013452;28;20391;-74
2021/04/20 02:33:30;;;;;;;40.90;32.30;;;5.90;99.90;;;;;;5011895;28;20018;-73
2021/04/20 02:35:59;;;;;;;43.10;31.75;;;5.90;99.90;;;;;;5013648;28;20021;-74
2021/04/20 02:38:26;;;;;;;46.13;33.83;;;5.90;99.90;;;;;;5013323;28;20440;-73
2021/04/20 02:40:57;;;;;;;45.60;33.97;;;5.70;99.90;;;;;;5012983;28;20033;-71
2021/04/20 02:43:23;;;;;;;47.95;35.75;;;5.60;99.90;;;;;;5013092;28;20022;-72
2021/04/20 02:45:52;;;;;;;51.78;36.67;;;5.60;99.90;;;;;;5011889;28;20022;-74
2021/04/20 02:48:17;;;;;;;52.25;37.10;;;5.50;99.90;;;;;;5011919;28;20018;-74
2021/04/20 02:50:44;;;;;;;46.83;35.53;;;5.50;99.90;;;;;;5013155;28;20148;-73
2021/04/20 02:53:10;;;;;;;52.97;37.67;;;5.50;99.90;;;;;;5013145;28;20084;-73
2021/04/20 02:55:36;;;;;;;49.97;36.80;;;5.60;99.90;;;;;;5011737;28;20033;-72
2021/04/20 02:58:04;;;;;;;50.08;35.92;;;5.40;99.90;;;;;;5011641;28;20026;-72
2021/04/20 03:00:31;;;;;;;49.97;37.42;;;5.50;99.90;;;;;;5012788;28;20025;-73
2021/04/20 03:02:59;;;;;;;52.67;37.33;;;5.40;99.90;;;;;;5012514;28;20025;-72
2021/04/20 03:05:28;;;;;;;51.95;37.42;;;5.30;99.90;;;;;;4998565;28;20053;-74
2021/04/20 03:07:54;;;;;;;58.50;39.53;;;5.20;99.90;;;;;;5011711;28;20025;-74
2021/04/20 03:10:20;;;;;;;50.85;36.70;;;5.10;99.90;;;;;;5011478;28;20029;-75
2021/04/20 03:12:47;;;;;;;48.80;35.00;;;4.90;99.90;;;;;;5012783;28;20021;-74
2021/04/20 03:15:15;;;;;;;47.08;33.90;;;4.80;99.90;;;;;;5012622;28;20049;-74
2021/04/20 03:17:45;;;;;;;49.40;36.55;;;4.90;99.90;;;;;;5011429;28;20054;-74
2021/04/20 03:20:12;;;;;;;55.35;38.92;;;4.80;99.90;;;;;;5012642;28;20026;-73
2021/04/20 03:22:42;;;;;;;49.35;35.83;;;4.80;99.90;;;;;;5012531;28;20026;-73
2021/04/20 03:25:17;;;;;;;53.30;38.35;;;4.70;99.90;;;;;;5012311;28;20565;-72
2021/04/20 03:27:47;;;;;;;51.97;36.47;;;4.60;99.90;;;;;;5011291;28;20033;-72
2021/04/20 03:30:15;;;;;;;58.88;40.42;;;4.60;99.90;;;;;;5012646;28;20491;-73
2021/04/20 03:33:04;;;;;;;56.25;38.90;;;4.70;99.90;;;;;;5012383;28;20542;-74
2021/04/20 03:35:56;;;;;;;55.65;38.47;;;4.90;99.90;;;;;;5020459;28;20479;-73
2021/04/20 03:38:52;;;;;;;54.60;39.30;;;5.00;99.90;;;;;;5012409;28;20057;-73
2021/04/20 03:41:31;;;;;;;58.88;41.75;;;5.10;99.90;;;;;;5012404;28;20103;-73
2021/04/20 03:43:59;;;;;;;61.97;42.25;;;4.70;99.90;;;;;;5011040;28;20022;-73
2021/04/20 03:46:37;;;;;;;58.53;40.25;;;4.70;99.90;;;;;;5012147;28;20049;-73
2021/04/20 03:49:26;;;;;;;60.35;41.08;;;4.80;99.90;;;;;;5012265;28;20145;-73
2021/04/20 03:51:54;;;;;;;63.28;41.95;;;4.60;99.90;;;;;;5012055;28;20120;-76
2021/04/20 03:54:22;;;;;;;58.35;40.90;;;4.50;99.90;;;;;;5011892;28;20025;-73
2021/04/20 03:56:50;;;;;;;52.88;37.17;;;4.40;99.90;;;;;;5010930;28;20025;-72
2021/04/20 03:59:18;;;;;;;52.80;37.63;;;4.20;99.90;;;;;;5010665;28;20495;-72
2021/04/20 04:01:48;;;;;;;56.88;40.92;;;4.20;99.90;;;;;;5010734;28;20033;-73
2021/04/20 04:04:17;;;;;;;55.08;38.75;;;4.30;99.90;;;;;;5010410;28;20022;-74
2021/04/20 04:06:43;;;;;;;54.03;35.95;;;4.30;99.90;;;;;;5010684;28;20176;-71
2021/04/20 04:09:11;;;;;;;57.83;39.30;;;4.30;99.90;;;;;;5010594;28;20026;-74
2021/04/20 04:11:38;;;;;;;59.38;40.70;;;4.00;99.90;;;;;;5011841;28;20036;-75
2021/04/20 04:14:07;;;;;;;75.03;44.47;;;4.00;99.90;;;;;;5010485;28;20549;-72
2021/04/20 04:16:33;;;;;;;69.88;44.42;;;4.00;99.90;;;;;;5011865;28;20034;-72
2021/04/20 04:19:00;;;;;;;59.75;40.72;;;4.00;99.90;;;;;;5011826;28;20026;-74
2021/04/20 04:21:34;;;;;;;62.65;42.28;;;4.10;99.90;;;;;;5011638;28;20025;-74
2021/04/20 04:24:04;;;;;;;61.97;41.72;;;4.10;99.90;;;;;;5011725;28;20076;-73
2021/04/20 04:26:34;;;;;;;68.53;42.40;;;4.20;99.90;;;;;;5011759;28;20365;-75
2021/04/20 04:29:02;;;;;;;57.20;39.83;;;4.10;99.90;;;;;;5011733;28;20092;-75
2021/04/20 04:31:30;;;;;;;62.80;40.75;;;4.00;99.90;;;;;;5011677;28;20117;-75
2021/04/20 04:33:56;;;;;;;64.70;42.40;;;3.80;99.90;;;;;;5010341;28;20033;-73
2021/04/20 04:36:23;;;;;;;65.68;44.58;;;3.90;99.90;;;;;;5024984;28;20030;-73
2021/04/20 04:38:49;;;;;;;59.53;40.30;;;3.90;99.90;;;;;;5011608;28;20045;-74
2021/04/20 04:41:15;;;;;;;62.13;42.08;;;3.80;99.90;;;;;;5010806;28;20068;-75
2021/04/20 04:43:42;;;;;;;60.97;41.63;;;3.70;99.90;;;;;;5010855;28;20081;-74
2021/04/20 04:46:08;;;;;;;60.45;40.78;;;3.70;99.90;;;;;;5010372;28;20018;-74
2021/04/20 04:48:35;;;;;;;70.45;45.85;;;3.90;99.90;;;;;;5013012;28;20029;-75
2021/04/20 04:51:01;;;;;;;71.47;45.70;;;3.80;99.90;;;;;;5014016;28;20029;-74
2021/04/20 04:53:27;;;;;;;63.42;42.22;;;3.70;99.90;;;;;;5013956;28;20388;-75
2021/04/20 04:55:56;;;;;;;61.60;43.05;;;3.40;99.90;;;;;;5013442;28;20037;-73
2021/04/20 04:58:25;;;;;;;69.47;46.00;;;3.60;99.90;;;;;;5015355;28;20030;-74
2021/04/20 05:00:51;;;;;;;64.20;40.70;;;3.70;99.90;;;;;;5013990;28;20476;-74
2021/04/20 05:03:17;;;;;;;63.30;41.65;;;3.80;99.90;;;;;;5015195;28;20029;-73
2021/04/20 05:05:45;;;;;;;61.67;42.60;;;3.80;99.90;;;;;;5008766;28;20022;-73
2021/04/20 05:08:10;;;;;;;62.13;40.97;;;3.70;99.90;;;;;;5007542;28;20037;-73
2021/04/20 05:10:36;;;;;;;59.03;38.45;;;3.80;99.90;;;;;;5001902;28;20030;-74
2021/04/20 05:13:02;;;;;;;57.97;38.53;;;4.00;99.90;;;;;;5003795;28;20038;-73
2021/04/20 05:15:28;;;;;;;57.08;38.63;;;3.80;99.90;;;;;;5019635;28;20026;-73
2021/04/20 05:17:54;;;;;;;62.35;40.83;;;3.80;99.90;;;;;;5015454;28;20033;-73
2021/04/20 05:20:21;;;;;;;66.28;42.88;;;3.90;99.90;;;;;;5000665;28;20033;-74
2021/04/20 05:22:48;;;;;;;71.85;43.60;;;4.10;99.90;;;;;;5015215;28;20101;-73
2021/04/20 05:25:17;;;;;;;64.90;42.85;;;4.40;99.90;;;;;;5013618;28;20046;-73
2021/04/20 05:27:43;;;;;;;61.40;40.47;;;4.10;99.90;;;;;;5013971;28;20492;-73
2021/04/20 05:30:10;;;;;;;62.30;40.35;;;4.10;99.90;;;;;;5016686;28;20030;-73
2021/04/20 05:32:41;;;;;;;70.90;43.90;;;4.20;99.90;;;;;;5014372;28;20121;-74
2021/04/20 05:35:10;;;;;;;66.32;44.33;;;4.20;99.90;;;;;;5021371;28;20034;-74
2021/04/20 05:37:38;;;;;;;68.25;45.13;;;4.20;99.90;;;;;;5020656;28;20105;-74
2021/04/20 05:40:11;;;;;;;69.45;46.30;;;4.40;99.90;;;;;;5014372;28;20030;-73
2021/04/20 05:42:37;;;;;;;66.63;44.00;;;4.60;99.90;;;;;;5013122;28;20034;-73
2021/04/20 05:45:08;;;;;;;69.88;46.63;;;4.60;99.90;;;;;;5013089;28;20022;-73
2021/04/20 05:47:37;;;;;;;71.30;46.30;;;4.60;99.90;;;;;;5015042;28;20523;-73
2021/04/20 05:50:04;;;;;;;71.90;46.08;;;4.70;99.90;;;;;;5014581;28;20091;-73
2021/04/20 05:52:36;;;;;;;71.78;46.25;;;4.70;99.90;;;;;;5012918;28;20056;-73
2021/04/20 05:55:04;;;;;;;74.70;48.22;;;4.90;99.90;;;;;;5014246;28;20399;-73
2021/04/20 05:57:30;;;;;;;73.65;47.60;;;5.00;99.90;;;;;;5014591;28;20432;-73
2021/04/20 05:59:57;;;;;;;72.28;46.67;;;5.00;99.90;;;;;;5014181;28;20109;-72
2021/04/20 06:02:25;;;;;;;66.30;44.53;;;5.10;99.90;;;;;;5014701;28;20046;-73
2021/04/20 06:04:54;;;;;;;68.32;44.75;;;5.30;99.90;;;;;;5013722;28;20097;-72
2021/04/20 06:07:21;;;;;;;62.88;42.53;;;5.20;99.90;;;;;;5012210;28;20083;-72
2021/04/20 06:09:47;;;;;;;68.63;44.75;;;5.30;99.90;;;;;;5012529;28;20053;-74
2021/04/20 06:12:13;;;;;;;76.05;47.88;;;5.40;99.90;;;;;;5012759;28;20029;-73
2021/04/20 06:14:39;;;;;;;79.68;48.33;;;5.50;99.90;;;;;;5012939;28;20025;-73
2021/04/20 06:17:07;;;;;;;68.88;44.08;;;5.50;99.90;;;;;;5011642;28;20108;-74
2021/04/20 06:19:35;;;;;;;70.18;45.15;;;5.50;99.90;;;;;;5014100;28;20510;-74
2021/04/20 06:22:01;;;;;;;72.78;47.55;;;5.30;99.90;;;;;;5012677;28;20026;-73
2021/04/20 06:24:28;;;;;;;70.65;47.55;;;5.20;99.90;;;;;;5013909;28;20048;-73
2021/04/20 06:26:55;;;;;;;72.78;47.13;;;5.20;99.90;;;;;;5012767;28;20029;-74
2021/04/20 06:29:20;;;;;;;64.25;44.70;;;5.10;99.90;;;;;;5015501;28;20117;-73
2021/04/20 06:31:48;;;;;;;68.75;46.08;;;5.50;99.90;;;;;;5015224;28;20065;-73
2021/04/20 06:34:14;;;;;;;71.75;47.08;;;5.80;99.90;;;;;;5003798;28;20022;-72
2021/04/20 06:36:40;;;;;;;65.65;43.22;;;5.80;99.90;;;;;;5001056;28;20554;-73
2021/04/20 06:39:08;;;;;;;65.05;45.40;;;6.00;99.90;;;;;;5014907;28;20033;-74
2021/04/20 06:41:36;;;;;;;66.82;44.53;;;6.20;99.90;;;;;;4999130;28;20033;-73
2021/04/20 06:44:11;;;;;;;66.97;45.30;;;6.30;99.90;;;;;;5013429;28;20427;-75
2021/04/20 06:46:56;;;;;;;63.88;44.03;;;6.50;99.90;;;;;;5013881;28;20093;-73
2021/04/20 06:49:31;;;;;;;62.92;43.58;;;6.60;99.90;;;;;;5014975;28;20029;-73
2021/04/20 06:52:02;;;;;;;70.70;46.40;;;6.60;99.90;;;;;;5015623;28;20404;-72
2021/04/20 06:54:33;;;;;;;69.05;45.95;;;6.70;99.90;;;;;;5014442;28;20064;-72
2021/04/20 06:57:14;;;;;;;73.18;48.15;;;6.60;99.90;;;;;;5015643;28;20022;-73
2021/04/20 06:59:45;;;;;;;70.32;47.55;;;6.60;99.90;;;;;;5016544;28;20492;-72
2021/04/20 07:02:49;;;;;;;74.20;50.53;;;6.80;99.90;;;;;;5013217;28;20022;-72
2021/04/20 07:05:28;;;;;;;68.13;46.03;;;7.00;99.90;;;;;;5001204;28;20022;-72
2021/04/20 07:08:01;;;;;;;74.22;49.55;;;7.40;99.90;;;;;;5014955;28;20072;-73
2021/04/20 07:10:36;;;;;;;86.65;56.35;;;7.50;99.90;;;;;;4999831;28;20037;-73
2021/04/20 07:13:07;;;;;;;78.82;51.83;;;7.50;99.90;;;;;;5015107;28;20088;-73
2021/04/20 07:15:34;;;;;;;76.82;48.08;;;7.60;99.90;;;;;;5013446;28;20499;-73
2021/04/20 07:18:15;;;;;;;82.28;54.05;;;7.80;99.90;;;;;;5014172;28;20484;-73
2021/04/20 07:21:18;;;;;;;84.30;55.28;;;7.70;99.90;;;;;;5002402;28;20033;-73
2021/04/20 07:23:58;;;;;;;76.43;50.30;;;7.80;99.90;;;;;;5000497;28;20033;-73
2021/04/20 07:26:29;;;;;;;73.85;48.95;;;7.90;99.90;;;;;;5013295;28;20072;-73
2021/04/20 07:29:29;;;;;;;62.58;42.97;;;8.00;99.90;;;;;;5013437;28;20076;-73
2021/04/20 07:32:23;;;;;;;64.03;42.90;;;8.10;99.90;;;;;;5000057;28;20022;-74
2021/04/20 07:35:08;;;;;;;64.82;41.20;;;8.20;99.90;;;;;;5010995;28;20360;-73
2021/04/20 07:37:47;;;;;;;63.33;44.88;;;8.20;99.90;;;;;;4997637;28;20031;-73
2021/04/20 07:40:37;;;;;;;66.53;44.75;;;8.30;99.90;;;;;;5012114;28;20395;-73
2021/04/20 07:43:15;;;;;;;65.22;44.20;;;8.30;99.90;;;;;;5010607;28;20026;-73
2021/04/20 07:46:07;;;;;;;62.80;42.35;;;8.30;99.90;;;;;;5010997;28;20018;-73
2021/04/20 07:48:43;;;;;;;68.43;45.13;;;8.40;99.90;;;;;;5001974;28;20031;-73
2021/04/20 07:51:25;;;;;;;64.70;43.38;;;8.50;99.90;;;;;;5011267;28;20077;-72
2021/04/20 07:54:03;;;;;;;65.15;43.78;;;8.70;99.90;;;;;;5012253;28;20392;-74
2021/04/20 07:56:33;;;;;;;65.43;43.88;;;8.80;99.90;;;;;;5006635;28;20026;-73
2021/04/20 07:59:08;;;;;;;67.05;44.08;;;8.70;99.90;;;;;;5010741;28;20024;-73
2021/04/20 08:01:56;;;;;;;62.40;43.65;;;8.60;99.90;;;;;;5013624;28;20032;-73
2021/04/20 08:04:51;;;;;;;63.13;42.97;;;8.30;99.90;;;;;;5013554;28;20026;-73
2021/04/20 08:07:28;;;;;;;67.25;43.50;;;8.50;99.90;;;;;;5012241;28;20053;-72
2021/04/20 08:09:56;;;;;;;62.75;42.38;;;8.70;99.90;;;;;;5013730;28;20041;-72
2021/04/20 08:12:26;;;;;;;59.92;41.22;;;8.70;99.90;;;;;;5013454;28;20088;-73
2021/04/20 08:15:15;;;;;;;63.08;43.10;;;9.10;99.90;;;;;;5013282;28;20037;-73
2021/04/20 08:18:04;;;;;;;63.03;44.03;;;9.20;99.90;;;;;;4992528;28;20041;-73
2021/04/20 08:20:31;;;;;;;63.67;42.78;;;9.20;99.90;;;;;;5012333;28;20021;-75
2021/04/20 08:22:59;;;;;;;61.70;43.72;;;9.40;99.90;;;;;;5018331;28;20384;-72
2021/04/20 08:25:29;;;;;;;61.85;43.35;;;9.40;99.90;;;;;;5012943;28;20023;-72
2021/04/20 08:28:16;;;;;;;60.78;42.25;;;9.40;99.90;;;;;;5013633;28;20022;-71
2021/04/20 08:31:03;;;;;;;61.75;43.42;;;9.40;99.90;;;;;;5009073;28;20078;-74
2021/04/20 08:33:32;;;;;;;59.63;41.78;;;9.60;99.90;;;;;;5019588;28;20496;-72
2021/04/20 08:36:05;;;;;;;62.92;42.75;;;9.60;99.90;;;;;;5018702;28;20115;-72
2021/04/20 08:38:52;;;;;;;59.55;42.00;;;10.00;99.90;;;;;;5006556;28;20498;-72
2021/04/20 08:41:24;;;;;;;57.17;40.97;;;10.00;99.90;;;;;;5019624;28;20030;-72
2021/04/20 08:44:20;;;;;;;57.03;39.65;;;9.90;99.90;;;;;;5019121;28;20084;-74
2021/04/20 08:47:18;;;;;;;55.45;40.38;;;9.90;99.90;;;;;;5018282;28;20014;-72
2021/04/20 08:49:52;;;;;;;55.72;40.60;;;9.80;99.90;;;;;;5018968;28;20508;-74
2021/04/20 08:52:41;;;;;;;56.20;39.97;;;9.80;99.90;;;;;;5018315;28;20030;-73
2021/04/20 08:55:44;;;;;;;55.25;40.95;;;9.90;99.90;;;;;;5019050;28;20507;-74
2021/04/20 08:58:42;;;;;;;59.45;40.90;;;10.00;99.90;;;;;;4999397;28;20089;-74
2021/04/20 09:01:42;;;;;;;50.83;36.83;;;10.10;99.90;;;;;;5019703;28;20021;-74
2021/04/20 09:04:20;;;;;;;51.25;36.28;;;10.40;99.90;;;;;;5007181;28;20034;-76
2021/04/20 09:06:51;;;;;;;49.88;35.65;;;10.40;99.90;;;;;;5012736;28;20025;-76
2021/04/20 09:09:19;;;;;;;47.55;36.00;;;10.50;99.90;;;;;;5019804;28;20038;-76
2021/04/20 09:12:01;;;;;;;47.40;34.60;;;10.60;99.90;;;;;;5017786;28;20025;-73
2021/04/20 09:14:29;;;;;;;46.03;34.60;;;10.70;99.90;;;;;;5017332;28;20022;-74
2021/04/20 09:17:12;;;;;;;40.78;30.92;;;10.80;99.90;;;;;;5023446;28;20041;-73
2021/04/20 09:19:51;;;;;;;41.13;30.08;;;11.10;99.90;;;;;;5018733;28;20026;-74
2021/04/20 09:22:51;;;;;;;36.90;27.38;;;11.30;99.90;;;;;;5014963;28;20065;-73
2021/04/20 09:25:29;;;;;;;37.83;26.52;;;11.20;99.90;;;;;;5018108;28;20021;-75
2021/04/20 09:28:38;;;;;;;35.83;25.27;;;11.60;99.90;;;;;;5019194;28;20022;-74
2021/04/20 09:31:17;;;;;;;36.90;26.13;;;11.60;99.90;;;;;;5010340;28;20026;-75
2021/04/20 09:33:54;;;;;;;36.08;28.48;;;11.50;99.90;;;;;;5002905;28;20511;-74
2021/04/20 09:36:22;;;;;;;36.17;28.15;;;11.40;99.90;;;;;;5029002;28;20104;-75
2021/04/20 09:38:50;;;;;;;36.80;27.83;;;11.50;99.90;;;;;;5015752;28;20587;-75
2021/04/20 09:41:28;;;;;;;33.03;26.75;;;11.80;99.90;;;;;;5001081;28;20037;-74
2021/04/20 09:44:08;;;;;;;33.45;26.73;;;12.20;99.90;;;;;;5013626;28;20026;-73
2021/04/20 09:46:48;;;;;;;33.78;25.80;;;12.10;99.90;;;;;;5003055;28;20026;-74
2021/04/20 09:49:56;;;;;;;31.95;25.05;;;12.00;99.90;;;;;;5014578;28;20113;-73
2021/04/20 09:52:24;;;;;;;32.35;24.50;;;12.20;99.90;;;;;;4986693;28;20385;-72
2021/04/20 09:55:04;;;;;;;34.65;26.08;;;12.30;99.90;;;;;;5014611;28;20041;-72
2021/04/20 09:57:33;;;;;;;31.65;23.88;;;12.10;99.90;;;;;;5014472;28;20101;-72
2021/04/20 10:00:08;;;;;;;30.42;24.33;;;12.10;99.90;;;;;;5003349;28;20114;-72
2021/04/20 10:03:07;;;;;;;31.83;23.48;;;12.30;99.90;;;;;;5006524;28;20030;-72
2021/04/20 10:06:02;;;;;;;33.60;25.00;;;12.50;99.90;;;;;;5006395;28;20031;-73
2021/04/20 10:08:57;;;;;;;31.90;25.42;;;12.40;99.90;;;;;;5008238;28;20022;-73
2021/04/20 10:11:33;;;;;;;31.25;25.30;;;12.70;99.90;;;;;;5006433;28;20391;-74
2021/04/20 10:14:02;;;;;;;31.35;24.13;;;12.70;99.90;;;;;;5014183;28;20495;-74
2021/04/20 10:16:35;;;;;;;36.10;26.23;;;12.60;99.90;;;;;;5014441;28;20054;-74
2021/04/20 10:19:25;;;;;;;33.63;24.90;;;12.60;99.90;;;;;;5005200;28;20105;-73
2021/04/20 10:22:17;;;;;;;32.53;24.45;;;12.90;99.90;;;;;;5007608;28;20477;-74
2021/04/20 10:24:50;;;;;;;32.78;25.60;;;13.00;99.90;;;;;;5007426;28;20030;-74
2021/04/20 10:27:20;;;;;;;29.33;23.85;;;13.00;99.90;;;;;;5014207;28;20091;-74
2021/04/20 10:29:57;;;;;;;30.90;24.65;;;13.00;99.90;;;;;;5014056;28;20045;-73
2021/04/20 10:32:33;;;;;;;30.58;24.17;;;12.80;99.90;;;;;;5013784;28;20021;-74
2021/04/20 10:35:00;;;;;;;32.50;24.50;;;12.90;99.90;;;;;;5012669;28;20030;-74
2021/04/20 10:37:48;;;;;;;32.15;24.42;;;12.80;99.90;;;;;;5014659;28;20030;-75
2021/04/20 10:40:17;;;;;;;31.58;23.80;;;12.60;99.90;;;;;;5013894;28;20026;-75
2021/04/20 10:42:47;;;;;;;29.30;22.85;;;12.80;99.90;;;;;;5012241;28;20130;-75
2021/04/20 10:45:13;;;;;;;27.83;21.92;;;13.00;99.90;;;;;;5012445;28;20075;-75
2021/04/20 10:47:40;;;;;;;22.33;18.38;;;12.90;99.90;;;;;;5012331;28;20511;-72
2021/04/20 10:50:07;;;;;;;31.80;23.98;;;13.10;99.90;;;;;;5014243;28;20034;-73
2021/04/20 10:52:35;;;;;;;29.50;21.92;;;13.20;99.90;;;;;;5012083;28;20018;-73
2021/04/20 10:55:09;;;;;;;25.23;20.55;;;13.30;99.90;;;;;;5013641;28;20057;-73
2021/04/20 10:57:44;;;;;;;29.40;23.15;;;13.30;99.90;;;;;;5011549;28;20030;-73
2021/04/20 11:00:14;;;;;;;27.85;22.25;;;13.60;99.90;;;;;;5011340;28;20013;-73
2021/04/20 11:02:52;;;;;;;26.85;22.02;;;13.80;99.90;;;;;;5011730;28;20040;-73
2021/04/20 11:05:21;;;;;;;26.95;20.38;;;14.00;99.90;;;;;;5012660;28;20022;-73
2021/04/20 11:07:48;;;;;;;27.80;22.70;;;14.50;99.90;;;;;;5013148;28;20021;-74
2021/04/20 11:10:15;;;;;;;29.05;21.70;;;14.60;99.90;;;;;;5012152;28;20026;-72
2021/04/20 11:12:47;;;;;;;30.17;23.02;;;14.40;99.90;;;;;;5013136;28;20021;-73
2021/04/20 11:15:23;;;;;;;26.27;20.90;;;14.30;99.90;;;;;;5012690;28;20026;-73
2021/04/20 11:17:54;;;;;;;28.83;22.02;;;15.00;99.90;;;;;;5013022;28;20030;-73
2021/04/20 11:20:37;;;;;;;29.60;22.60;;;15.20;99.90;;;;;;5012679;28;20053;-71
2021/04/20 11:23:09;;;;;;;31.90;24.10;;;15.10;99.90;;;;;;5015686;28;20029;-73
2021/04/20 11:25:43;;;;;;;32.58;25.73;;;14.60;99.90;;;;;;5005439;28;20018;-73
2021/04/20 11:28:39;;;;;;;32.83;25.60;;;14.20;99.90;;;;;;5012912;28;20021;-73
2021/04/20 11:31:07;;;;;;;32.17;25.25;;;14.30;99.90;;;;;;5012689;28;20041;-73
2021/04/20 11:33:49;;;;;;;32.50;25.27;;;14.50;99.90;;;;;;5003477;28;20052;-74
2021/04/20 11:36:19;;;;;;;32.22;25.42;;;14.60;99.90;;;;;;5019719;28;20022;-72
2021/04/20 11:38:50;;;;;;;31.52;25.67;;;14.60;99.90;;;;;;5012998;28;20036;-72
2021/04/20 11:41:20;;;;;;;30.70;24.45;;;14.50;99.90;;;;;;5012158;28;20037;-73
2021/04/20 11:43:58;;;;;;;31.60;24.30;;;14.90;99.90;;;;;;5011291;28;20026;-73
2021/04/20 11:46:27;;;;;;;30.20;24.55;;;15.00;99.90;;;;;;5012271;28;20025;-74
2021/04/20 11:48:56;;;;;;;30.80;23.77;;;15.30;99.90;;;;;;5012218;28;20387;-73
2021/04/20 11:51:32;;;;;;;28.67;23.60;;;15.50;99.90;;;;;;5012120;28;20029;-74
2021/04/20 11:53:58;;;;;;;;;;;15.40;99.90;;;;;;5011115;28;20117;-73
2021/04/20 11:56:24;;;;;;;28.80;23.65;;;15.60;99.90;;;;;;5010206;28;19952;-73
2021/04/20 11:58:55;;;;;;;25.27;21.48;;;15.40;99.90;;;;;;5012162;28;20029;-73
2021/04/20 12:01:22;;;;;;;25.63;21.63;;;16.00;99.90;;;;;;5012017;28;20396;-73
2021/04/20 12:04:00;;;;;;;26.67;21.42;;;16.00;99.90;;;;;;5012270;28;20018;-73
2021/04/20 12:06:37;;;;;;;24.52;20.02;;;16.00;99.90;;;;;;5012487;28;20113;-74
2021/04/20 12:09:03;;;;;;;24.70;20.95;;;16.30;99.90;;;;;;5011074;28;20109;-73
2021/04/20 12:11:30;;;;;;;26.98;20.65;;;16.50;99.90;;;;;;5011741;28;20101;-74
2021/04/20 12:13:57;;;;;;;24.13;19.73;;;16.40;99.90;;;;;;5012020;28;20356;-73
2021/04/20 12:16:23;;;;;;;23.95;19.25;;;16.60;99.90;;;;;;5012045;28;20022;-73
2021/04/20 12:18:51;;;;;;;22.73;17.98;;;16.30;99.90;;;;;;5011810;28;20087;-74
2021/04/20 12:21:24;;;;;;;20.75;15.90;;;16.30;99.90;;;;;;5010500;28;20022;-74
2021/04/20 12:23:54;;;;;;;18.88;15.52;;;15.60;99.90;;;;;;5006272;28;20476;-73
2021/04/20 12:26:20;;;;;;;21.17;16.38;;;15.40;99.90;;;;;;5010288;28;20033;-74
2021/04/20 12:28:52;;;;;;;20.85;16.98;;;15.10;99.90;;;;;;5011948;28;20595;-72
2021/04/20 12:31:26;;;;;;;22.75;18.38;;;15.50;99.90;;;;;;5011793;28;20119;-72
2021/04/20 12:33:52;;;;;;;21.48;17.90;;;16.30;99.90;;;;;;5011623;28;20065;-73
2021/04/20 12:36:27;;;;;;;18.60;16.50;;;16.90;99.90;;;;;;5018424;28;20072;-73
2021/04/20 12:38:56;;;;;;;22.40;17.20;;;17.30;99.90;;;;;;5010560;28;20088;-73
2021/04/20 12:41:22;;;;;;;19.55;16.35;;;16.90;99.90;;;;;;5005359;28;20037;-74
2021/04/20 12:43:52;;;;;;;20.00;15.82;;;17.50;99.90;;;;;;5003763;28;20026;-73
2021/04/20 12:46:22;;;;;;;18.83;16.30;;;18.20;99.90;;;;;;5011837;28;20026;-73
2021/04/20 12:48:48;;;;;;;19.55;16.38;;;18.80;99.90;;;;;;5011847;28;20120;-73
2021/04/20 12:51:17;;;;;;;17.67;15.88;;;17.50;99.90;;;;;;5010414;28;20500;-73
2021/04/20 12:53:51;;;;;;;20.27;15.32;;;18.20;99.90;;;;;;5011386;28;20026;-73
2021/04/20 12:56:43;;;;;;;17.42;13.93;;;18.20;99.90;;;;;;5011656;28;20029;-73
2021/04/20 12:59:19;;;;;;;16.83;13.82;;;19.00;99.90;;;;;;5010662;28;20121;-73